sensor_id;sensor_type;location;lat;lon;timestamp;pressure;altitude;pressure_sealevel;temperature;humidity
3444;BME280;1736;52.068;6.968;2022-12-20T00:00:46;100912.91;;;9.26;100.00
3444;BME280;1736;52.068;6.968;2022-12-20T00:03:15;100916.75;;;9.33;99.66
3444;BME280;1736;52.068;6.968;2022-12-20T00:05:42;100911.94;;;9.27;99.67
3444;BME280;1736;52.068;6.968;2022-12-20T00:08:09;100913.28;;;9.33;99.88
3444;BME280;1736;52.068;6.968;2022-12-20T00:10:36;100905.94;;;9.36;99.68
3444;BME280;1736;52.068;6.968;2022-12-20T00:13:03;100898.59;;;9.29;99.60
3444;BME280;1736;52.068;6.968;2022-12-20T00:15:33;100901.84;;;9.32;100.00
3444;BME280;1736;52.068;6.968;2022-12-20T00:17:59;100915.72;;;9.36;99.78
3444;BME280;1736;52.068;6.968;2022-12-20T00:20:26;100910.75;;;9.31;99.81
3444;BME280;1736;52.068;6.968;2022-12-20T00:22:56;100904.84;;;9.28;99.87
3444;BME280;1736;52.068;6.968;2022-12-20T00:25:23;100915.81;;;9.34;99.31
3444;BME280;1736;52.068;6.968;2022-12-20T00:27:49;100911.72;;;9.30;99.34
3444;BME280;1736;52.068;6.968;2022-12-20T00:30:16;100898.91;;;9.24;99.76
3444;BME280;1736;52.068;6.968;2022-12-20T00:32:45;100890.53;;;9.30;99.38
3444;BME280;1736;52.068;6.968;2022-12-20T00:35:11;100884.03;;;9.34;99.12
3444;BME280;1736;52.068;6.968;2022-12-20T00:37:38;100892.09;;;9.33;99.08
3444;BME280;1736;52.068;6.968;2022-12-20T00:40:06;100880.22;;;9.38;98.63
3444;BME280;1736;52.068;6.968;2022-12-20T00:42:33;100887.19;;;9.39;98.39
3444;BME280;1736;52.068;6.968;2022-12-20T00:44:59;100884.50;;;9.28;98.83
3444;BME280;1736;52.068;6.968;2022-12-20T00:47:29;100884.28;;;9.31;98.75
3444;BME280;1736;52.068;6.968;2022-12-20T00:49:57;100888.16;;;9.38;98.49
3444;BME280;1736;52.068;6.968;2022-12-20T00:52:23;100879.72;;;9.44;97.66
3444;BME280;1736;52.068;6.968;2022-12-20T00:54:50;100866.84;;;9.40;97.70
3444;BME280;1736;52.068;6.968;2022-12-20T00:57:16;100875.41;;;9.43;97.42
3444;BME280;1736;52.068;6.968;2022-12-20T00:59:43;100874.06;;;9.38;97.64
3444;BME280;1736;52.068;6.968;2022-12-20T01:02:09;100873.34;;;9.36;97.21
3444;BME280;1736;52.068;6.968;2022-12-20T01:04:36;100876.38;;;9.42;97.34
3444;BME280;1736;52.068;6.968;2022-12-20T01:07:04;100883.22;;;9.45;96.78
3444;BME280;1736;52.068;6.968;2022-12-20T01:09:31;100879.50;;;9.47;97.01
3444;BME280;1736;52.068;6.968;2022-12-20T01:11:57;100874.47;;;9.55;96.54
3444;BME280;1736;52.068;6.968;2022-12-20T01:14:25;100876.41;;;9.64;96.00
3444;BME280;1736;52.068;6.968;2022-12-20T01:16:52;100877.81;;;9.57;95.67
3444;BME280;1736;52.068;6.968;2022-12-20T01:19:18;100870.34;;;9.51;95.84
3444;BME280;1736;52.068;6.968;2022-12-20T01:21:45;100876.88;;;9.58;95.71
3444;BME280;1736;52.068;6.968;2022-12-20T01:24:15;100884.09;;;9.56;95.62
3444;BME280;1736;52.068;6.968;2022-12-20T01:26:42;100878.72;;;9.69;94.46
3444;BME280;1736;52.068;6.968;2022-12-20T01:29:10;100878.56;;;9.59;95.02
3444;BME280;1736;52.068;6.968;2022-12-20T01:31:36;100889.16;;;9.59;94.82
3444;BME280;1736;52.068;6.968;2022-12-20T01:34:04;100873.16;;;9.61;94.75
3444;BME280;1736;52.068;6.968;2022-12-20T01:36:33;100875.31;;;9.67;94.59
3444;BME280;1736;52.068;6.968;2022-12-20T01:39:01;100869.19;;;9.66;94.40
3444;BME280;1736;52.068;6.968;2022-12-20T01:41:33;100867.84;;;9.72;93.75
3444;BME280;1736;52.068;6.968;2022-12-20T01:44:02;100893.31;;;9.74;93.67
3444;BME280;1736;52.068;6.968;2022-12-20T01:46:30;100888.09;;;9.84;93.00
3444;BME280;1736;52.068;6.968;2022-12-20T01:49:00;100888.38;;;10.03;92.02
3444;BME280;1736;52.068;6.968;2022-12-20T01:51:30;100866.06;;;9.94;91.69
3444;BME280;1736;52.068;6.968;2022-12-20T01:54:01;100865.03;;;10.08;91.36
3444;BME280;1736;52.068;6.968;2022-12-20T01:56:30;100874.41;;;10.01;91.38
3444;BME280;1736;52.068;6.968;2022-12-20T01:58:57;100864.63;;;10.01;91.15
3444;BME280;1736;52.068;6.968;2022-12-20T02:01:24;100868.03;;;10.03;91.09
3444;BME280;1736;52.068;6.968;2022-12-20T02:03:53;100860.81;;;10.05;90.71
3444;BME280;1736;52.068;6.968;2022-12-20T02:06:23;100861.38;;;9.98;91.07
3444;BME280;1736;52.068;6.968;2022-12-20T02:08:51;100864.09;;;10.09;90.68
3444;BME280;1736;52.068;6.968;2022-12-20T02:11:45;100864.91;;;10.09;90.52
3444;BME280;1736;52.068;6.968;2022-12-20T02:14:27;100861.56;;;10.07;90.88
3444;BME280;1736;52.068;6.968;2022-12-20T02:17:01;100856.72;;;10.12;90.79
3444;BME280;1736;52.068;6.968;2022-12-20T02:19:53;100854.19;;;10.11;91.21
3444;BME280;1736;52.068;6.968;2022-12-20T02:22:28;100869.34;;;10.20;91.29
3444;BME280;1736;52.068;6.968;2022-12-20T02:25:29;100866.25;;;10.26;91.50
3444;BME280;1736;52.068;6.968;2022-12-20T02:28:18;100869.25;;;10.32;91.44
3444;BME280;1736;52.068;6.968;2022-12-20T02:30:51;100875.53;;;10.31;91.29
3444;BME280;1736;52.068;6.968;2022-12-20T02:33:20;100875.03;;;10.26;92.50
3444;BME280;1736;52.068;6.968;2022-12-20T02:35:50;100878.16;;;10.20;94.59
3444;BME280;1736;52.068;6.968;2022-12-20T02:38:26;100870.44;;;10.06;96.80
3444;BME280;1736;52.068;6.968;2022-12-20T02:40:56;100861.88;;;10.03;97.83
3444;BME280;1736;52.068;6.968;2022-12-20T02:43:25;100867.53;;;9.87;99.35
3444;BME280;1736;52.068;6.968;2022-12-20T02:46:12;100851.84;;;9.84;100.00
3444;BME280;1736;52.068;6.968;2022-12-20T02:48:40;100859.56;;;9.76;100.00
3444;BME280;1736;52.068;6.968;2022-12-20T02:51:08;100860.53;;;9.75;100.00
3444;BME280;1736;52.068;6.968;2022-12-20T02:53:36;100859.78;;;9.73;100.00
3444;BME280;1736;52.068;6.968;2022-12-20T02:56:09;100846.19;;;9.56;100.00
3444;BME280;1736;52.068;6.968;2022-12-20T02:58:40;100841.72;;;9.56;100.00
3444;BME280;1736;52.068;6.968;2022-12-20T03:01:13;100850.88;;;9.63;100.00
3444;BME280;1736;52.068;6.968;2022-12-20T03:03:41;100849.88;;;9.53;100.00
3444;BME280;1736;52.068;6.968;2022-12-20T03:06:08;100837.34;;;9.44;100.00
3444;BME280;1736;52.068;6.968;2022-12-20T03:08:35;100837.84;;;9.49;100.00
3444;BME280;1736;52.068;6.968;2022-12-20T03:11:01;100828.56;;;9.44;100.00
3444;BME280;1736;52.068;6.968;2022-12-20T03:13:28;100841.56;;;9.47;100.00
3444;BME280;1736;52.068;6.968;2022-12-20T03:15:55;100839.16;;;9.44;100.00
3444;BME280;1736;52.068;6.968;2022-12-20T03:18:22;100842.75;;;9.43;100.00
3444;BME280;1736;52.068;6.968;2022-12-20T03:20:49;100843.56;;;9.32;100.00
3444;BME280;1736;52.068;6.968;2022-12-20T03:23:16;100830.81;;;9.37;100.00
3444;BME280;1736;52.068;6.968;2022-12-20T03:25:42;100838.38;;;9.31;100.00
3444;BME280;1736;52.068;6.968;2022-12-20T03:28:09;100842.38;;;9.25;100.00
3444;BME280;1736;52.068;6.968;2022-12-20T03:30:35;100835.38;;;9.24;100.00
3444;BME280;1736;52.068;6.968;2022-12-20T03:33:02;100831.16;;;9.22;100.00
3444;BME280;1736;52.068;6.968;2022-12-20T03:38:53;100831.25;;;9.20;100.00
3444;BME280;1736;52.068;6.968;2022-12-20T03:41:20;100828.13;;;9.15;100.00
3444;BME280;1736;52.068;6.968;2022-12-20T03:43:47;100816.81;;;9.13;100.00
3444;BME280;1736;52.068;6.968;2022-12-20T03:46:15;100800.94;;;9.13;100.00
3444;BME280;1736;52.068;6.968;2022-12-20T03:48:42;100809.00;;;9.12;100.00
3444;BME280;1736;52.068;6.968;2022-12-20T03:51:08;100799.47;;;9.09;100.00
3444;BME280;1736;52.068;6.968;2022-12-20T03:53:35;100810.53;;;9.03;100.00
3444;BME280;1736;52.068;6.968;2022-12-20T03:56:03;100800.03;;;9.02;100.00
3444;BME280;1736;52.068;6.968;2022-12-20T03:58:29;100797.50;;;9.00;100.00
3444;BME280;1736;52.068;6.968;2022-12-20T04:00:56;100793.06;;;9.01;100.00
3444;BME280;1736;52.068;6.968;2022-12-20T04:03:22;100792.56;;;8.96;100.00
3444;BME280;1736;52.068;6.968;2022-12-20T04:05:49;100806.63;;;8.96;100.00
3444;BME280;1736;52.068;6.968;2022-12-20T04:08:15;100791.22;;;8.90;100.00
3444;BME280;1736;52.068;6.968;2022-12-20T04:10:42;100781.34;;;8.92;100.00
3444;BME280;1736;52.068;6.968;2022-12-20T04:13:24;100793.19;;;8.99;100.00
3444;BME280;1736;52.068;6.968;2022-12-20T04:15:50;100797.25;;;8.92;100.00
3444;BME280;1736;52.068;6.968;2022-12-20T04:18:19;100788.84;;;8.98;100.00
3444;BME280;1736;52.068;6.968;2022-12-20T04:20:51;100786.91;;;8.89;100.00
3444;BME280;1736;52.068;6.968;2022-12-20T04:23:18;100783.63;;;8.86;100.00
3444;BME280;1736;52.068;6.968;2022-12-20T04:25:44;100789.03;;;8.84;100.00
3444;BME280;1736;52.068;6.968;2022-12-20T04:28:12;100783.28;;;8.90;100.00
3444;BME280;1736;52.068;6.968;2022-12-20T04:30:40;100778.22;;;8.87;100.00
3444;BME280;1736;52.068;6.968;2022-12-20T04:33:06;100778.44;;;8.84;100.00
3444;BME280;1736;52.068;6.968;2022-12-20T04:35:33;100778.44;;;8.84;100.00
3444;BME280;1736;52.068;6.968;2022-12-20T04:37:59;100788.38;;;8.93;100.00
3444;BME280;1736;52.068;6.968;2022-12-20T04:40:26;100777.03;;;8.91;100.00
3444;BME280;1736;52.068;6.968;2022-12-20T04:42:52;100778.00;;;8.90;100.00
3444;BME280;1736;52.068;6.968;2022-12-20T04:45:19;100784.78;;;9.05;100.00
3444;BME280;1736;52.068;6.968;2022-12-20T04:47:47;100768.91;;;9.05;100.00
3444;BME280;1736;52.068;6.968;2022-12-20T04:50:16;100769.41;;;9.10;100.00
3444;BME280;1736;52.068;6.968;2022-12-20T04:52:43;100768.16;;;9.03;100.00
3444;BME280;1736;52.068;6.968;2022-12-20T04:55:27;100773.00;;;9.09;100.00
3444;BME280;1736;52.068;6.968;2022-12-20T04:57:54;100767.47;;;9.12;100.00
3444;BME280;1736;52.068;6.968;2022-12-20T05:00:20;100772.41;;;9.17;100.00
3444;BME280;1736;52.068;6.968;2022-12-20T05:02:48;100771.22;;;9.21;100.00
3444;BME280;1736;52.068;6.968;2022-12-20T05:05:15;100761.50;;;9.21;100.00
3444;BME280;1736;52.068;6.968;2022-12-20T05:07:42;100768.81;;;9.18;100.00
3444;BME280;1736;52.068;6.968;2022-12-20T05:10:09;100780.97;;;9.20;100.00
3444;BME280;1736;52.068;6.968;2022-12-20T05:12:37;100775.09;;;9.28;100.00
3444;BME280;1736;52.068;6.968;2022-12-20T05:15:04;100778.31;;;9.20;100.00
3444;BME280;1736;52.068;6.968;2022-12-20T05:17:31;100781.59;;;9.24;100.00
3444;BME280;1736;52.068;6.968;2022-12-20T05:19:59;100785.06;;;9.24;100.00
3444;BME280;1736;52.068;6.968;2022-12-20T05:22:26;100774.94;;;9.29;100.00
3444;BME280;1736;52.068;6.968;2022-12-20T05:25:10;100774.72;;;9.32;100.00
3444;BME280;1736;52.068;6.968;2022-12-20T05:27:55;100774.50;;;9.35;100.00
3444;BME280;1736;52.068;6.968;2022-12-20T05:30:22;100772.56;;;9.37;100.00
3444;BME280;1736;52.068;6.968;2022-12-20T05:32:48;100767.66;;;9.44;100.00
3444;BME280;1736;52.068;6.968;2022-12-20T05:35:16;100775.47;;;9.45;100.00
3444;BME280;1736;52.068;6.968;2022-12-20T05:37:43;100768.84;;;9.51;100.00
3444;BME280;1736;52.068;6.968;2022-12-20T05:40:10;100758.97;;;9.64;100.00
3444;BME280;1736;52.068;6.968;2022-12-20T05:42:37;100762.72;;;9.61;100.00
3444;BME280;1736;52.068;6.968;2022-12-20T05:45:04;100756.94;;;9.67;100.00
3444;BME280;1736;52.068;6.968;2022-12-20T05:47:31;100757.66;;;9.69;100.00
3444;BME280;1736;52.068;6.968;2022-12-20T05:49:58;100747.16;;;9.68;100.00
3444;BME280;1736;52.068;6.968;2022-12-20T05:52:26;100755.13;;;9.68;100.00
3444;BME280;1736;52.068;6.968;2022-12-20T05:54:52;100748.53;;;9.62;100.00
3444;BME280;1736;52.068;6.968;2022-12-20T05:57:19;100743.06;;;9.64;100.00
3444;BME280;1736;52.068;6.968;2022-12-20T05:59:45;100756.94;;;9.78;100.00
3444;BME280;1736;52.068;6.968;2022-12-20T06:02:12;100750.44;;;9.71;100.00
3444;BME280;1736;52.068;6.968;2022-12-20T06:04:38;100749.22;;;9.86;100.00
3444;BME280;1736;52.068;6.968;2022-12-20T06:07:07;100750.56;;;9.81;100.00
3444;BME280;1736;52.068;6.968;2022-12-20T06:09:36;100744.63;;;9.88;100.00
3444;BME280;1736;52.068;6.968;2022-12-20T06:12:03;100752.00;;;9.85;100.00
3444;BME280;1736;52.068;6.968;2022-12-20T06:14:29;100749.44;;;9.94;100.00
3444;BME280;1736;52.068;6.968;2022-12-20T06:16:56;100747.28;;;9.88;100.00
3444;BME280;1736;52.068;6.968;2022-12-20T06:19:22;100751.13;;;9.95;100.00
3444;BME280;1736;52.068;6.968;2022-12-20T06:21:51;100748.97;;;9.89;100.00
3444;BME280;1736;52.068;6.968;2022-12-20T06:24:18;100752.69;;;9.87;100.00
3444;BME280;1736;52.068;6.968;2022-12-20T06:26:46;100740.53;;;9.84;100.00
3444;BME280;1736;52.068;6.968;2022-12-20T06:29:13;100738.88;;;9.83;100.00
3444;BME280;1736;52.068;6.968;2022-12-20T06:31:41;100741.97;;;9.88;100.00
3444;BME280;1736;52.068;6.968;2022-12-20T06:34:08;100735.00;;;9.87;100.00
3444;BME280;1736;52.068;6.968;2022-12-20T06:36:34;100729.47;;;9.90;100.00
3444;BME280;1736;52.068;6.968;2022-12-20T06:39:01;100731.38;;;9.88;100.00
3444;BME280;1736;52.068;6.968;2022-12-20T06:41:28;100738.13;;;9.92;100.00
3444;BME280;1736;52.068;6.968;2022-12-20T06:43:56;100737.88;;;9.95;100.00
3444;BME280;1736;52.068;6.968;2022-12-20T06:46:22;100733.06;;;9.89;100.00
3444;BME280;1736;52.068;6.968;2022-12-20T06:48:48;100728.63;;;9.90;100.00
3444;BME280;1736;52.068;6.968;2022-12-20T06:51:15;100725.00;;;9.91;100.00
3444;BME280;1736;52.068;6.968;2022-12-20T06:53:42;100726.44;;;9.95;100.00
3444;BME280;1736;52.068;6.968;2022-12-20T06:56:08;100724.75;;;9.83;100.00
3444;BME280;1736;52.068;6.968;2022-12-20T06:58:35;100723.19;;;9.80;100.00
3444;BME280;1736;52.068;6.968;2022-12-20T07:01:03;100713.81;;;9.87;100.00
3444;BME280;1736;52.068;6.968;2022-12-20T07:03:29;100717.28;;;9.88;100.00
3444;BME280;1736;52.068;6.968;2022-12-20T07:05:56;100719.81;;;9.89;100.00
3444;BME280;1736;52.068;6.968;2022-12-20T07:08:23;100703.66;;;9.81;100.00
3444;BME280;1736;52.068;6.968;2022-12-20T07:10:50;100707.66;;;9.76;100.00
3444;BME280;1736;52.068;6.968;2022-12-20T07:13:16;100708.50;;;9.76;100.00
3444;BME280;1736;52.068;6.968;2022-12-20T07:15:43;100701.88;;;9.71;100.00
3444;BME280;1736;52.068;6.968;2022-12-20T07:18:11;100694.06;;;9.69;100.00
3444;BME280;1736;52.068;6.968;2022-12-20T07:20:37;100696.22;;;9.75;100.00
3444;BME280;1736;52.068;6.968;2022-12-20T07:23:04;100695.75;;;9.70;100.00
3444;BME280;1736;52.068;6.968;2022-12-20T07:25:31;100699.13;;;9.72;100.00
3444;BME280;1736;52.068;6.968;2022-12-20T07:27:57;100700.09;;;9.82;100.00
3444;BME280;1736;52.068;6.968;2022-12-20T07:30:24;100690.94;;;9.75;100.00
3444;BME280;1736;52.068;6.968;2022-12-20T07:32:50;100691.28;;;9.82;100.00
3444;BME280;1736;52.068;6.968;2022-12-20T07:35:18;100699.69;;;9.76;100.00
3444;BME280;1736;52.068;6.968;2022-12-20T07:37:45;100693.94;;;9.82;100.00
3444;BME280;1736;52.068;6.968;2022-12-20T07:40:12;100683.44;;;9.80;100.00
3444;BME280;1736;52.068;6.968;2022-12-20T07:42:40;100684.19;;;9.82;100.00
3444;BME280;1736;52.068;6.968;2022-12-20T07:45:07;100683.91;;;9.85;100.00
3444;BME280;1736;52.068;6.968;2022-12-20T07:47:34;100683.16;;;9.94;100.00
3444;BME280;1736;52.068;6.968;2022-12-20T07:50:00;100682.69;;;9.89;100.00
3444;BME280;1736;52.068;6.968;2022-12-20T07:52:30;100689.56;;;9.92;100.00
3444;BME280;1736;52.068;6.968;2022-12-20T07:55:00;100691.00;;;9.96;100.00
3444;BME280;1736;52.068;6.968;2022-12-20T07:57:31;100692.31;;;10.01;100.00
3444;BME280;1736;52.068;6.968;2022-12-20T08:00:01;100680.50;;;9.94;100.00
3444;BME280;1736;52.068;6.968;2022-12-20T08:02:32;100681.00;;;9.99;99.73
3444;BME280;1736;52.068;6.968;2022-12-20T08:05:01;100674.28;;;9.95;100.00
3444;BME280;1736;52.068;6.968;2022-12-20T08:07:30;100683.66;;;9.99;99.91
3444;BME280;1736;52.068;6.968;2022-12-20T08:09:57;100670.97;;;10.03;99.58
3444;BME280;1736;52.068;6.968;2022-12-20T08:12:25;100665.91;;;10.00;99.04
3444;BME280;1736;52.068;6.968;2022-12-20T08:14:53;100649.91;;;10.12;98.44
3444;BME280;1736;52.068;6.968;2022-12-20T08:17:20;100661.19;;;10.14;98.13
3444;BME280;1736;52.068;6.968;2022-12-20T08:19:47;100668.00;;;10.07;98.84
3444;BME280;1736;52.068;6.968;2022-12-20T08:22:15;100665.47;;;10.06;98.27
3444;BME280;1736;52.068;6.968;2022-12-20T08:24:43;100666.91;;;10.10;97.15
3444;BME280;1736;52.068;6.968;2022-12-20T08:27:10;100679.06;;;10.12;97.74
3444;BME280;1736;52.068;6.968;2022-12-20T08:29:36;100669.16;;;10.14;97.00
3444;BME280;1736;52.068;6.968;2022-12-20T08:32:03;100660.97;;;10.17;96.70
3444;BME280;1736;52.068;6.968;2022-12-20T08:34:30;100664.78;;;10.24;96.17
3444;BME280;1736;52.068;6.968;2022-12-20T08:36:56;100665.47;;;10.37;95.30
3444;BME280;1736;52.068;6.968;2022-12-20T08:39:23;100668.69;;;10.41;94.76
3444;BME280;1736;52.068;6.968;2022-12-20T08:41:51;100656.22;;;10.52;93.96
3444;BME280;1736;52.068;6.968;2022-12-20T08:44:17;100674.81;;;10.52;93.84
3444;BME280;1736;52.068;6.968;2022-12-20T08:46:44;100661.66;;;10.51;93.95
3444;BME280;1736;52.068;6.968;2022-12-20T08:49:10;100647.63;;;10.60;93.02
3444;BME280;1736;52.068;6.968;2022-12-20T08:51:37;100672.06;;;10.63;92.64
3444;BME280;1736;52.068;6.968;2022-12-20T08:54:03;100662.88;;;10.68;92.61
3444;BME280;1736;52.068;6.968;2022-12-20T08:56:30;100660.59;;;10.74;92.10
3444;BME280;1736;52.068;6.968;2022-12-20T08:58:57;100655.97;;;10.76;91.86
3444;BME280;1736;52.068;6.968;2022-12-20T09:01:24;100651.50;;;10.77;92.20
3444;BME280;1736;52.068;6.968;2022-12-20T09:03:54;100661.34;;;10.86;92.12
3444;BME280;1736;52.068;6.968;2022-12-20T09:06:21;100660.81;;;10.92;91.58
3444;BME280;1736;52.068;6.968;2022-12-20T09:08:48;100664.19;;;10.94;90.66
3444;BME280;1736;52.068;6.968;2022-12-20T09:11:16;100652.28;;;10.88;91.37
3444;BME280;1736;52.068;6.968;2022-12-20T09:13:45;100657.47;;;10.90;90.77
3444;BME280;1736;52.068;6.968;2022-12-20T09:16:16;100662.75;;;10.90;90.53
3444;BME280;1736;52.068;6.968;2022-12-20T09:18:42;100667.81;;;10.93;90.40
3444;BME280;1736;52.068;6.968;2022-12-20T09:21:10;100666.31;;;11.00;89.90
3444;BME280;1736;52.068;6.968;2022-12-20T09:23:37;100669.44;;;11.05;89.39
3444;BME280;1736;52.068;6.968;2022-12-20T09:26:08;100654.91;;;11.09;88.13
3444;BME280;1736;52.068;6.968;2022-12-20T09:28:35;100658.69;;;11.16;88.28
3444;BME280;1736;52.068;6.968;2022-12-20T09:31:04;100669.06;;;11.19;87.47
3444;BME280;1736;52.068;6.968;2022-12-20T09:33:33;100667.66;;;11.15;88.00
3444;BME280;1736;52.068;6.968;2022-12-20T09:36:01;100665.97;;;11.14;88.49
3444;BME280;1736;52.068;6.968;2022-12-20T09:38:29;100678.06;;;11.27;87.79
3444;BME280;1736;52.068;6.968;2022-12-20T09:40:57;100673.84;;;11.25;87.35
3444;BME280;1736;52.068;6.968;2022-12-20T09:43:24;100688.88;;;11.35;86.69
3444;BME280;1736;52.068;6.968;2022-12-20T09:45:53;100678.63;;;11.31;86.23
3444;BME280;1736;52.068;6.968;2022-12-20T09:48:22;100692.91;;;11.30;86.45
3444;BME280;1736;52.068;6.968;2022-12-20T09:50:57;100682.84;;;11.33;87.42
3444;BME280;1736;52.068;6.968;2022-12-20T09:53:36;100688.09;;;11.24;88.80
3444;BME280;1736;52.068;6.968;2022-12-20T09:56:11;100696.69;;;11.07;90.54
3444;BME280;1736;52.068;6.968;2022-12-20T09:59:00;100683.78;;;11.02;91.33
3444;BME280;1736;52.068;6.968;2022-12-20T10:01:28;100687.72;;;11.08;92.46
3444;BME280;1736;52.068;6.968;2022-12-20T10:03:57;100686.78;;;10.88;95.22
3444;BME280;1736;52.068;6.968;2022-12-20T10:06:38;100686.06;;;10.66;98.14
3444;BME280;1736;52.068;6.968;2022-12-20T10:09:12;100684.13;;;10.68;98.55
3444;BME280;1736;52.068;6.968;2022-12-20T10:11:57;100673.59;;;10.57;100.00
3444;BME280;1736;52.068;6.968;2022-12-20T10:14:39;100666.97;;;10.51;100.00
3444;BME280;1736;52.068;6.968;2022-12-20T10:17:16;100662.53;;;10.52;100.00
3444;BME280;1736;52.068;6.968;2022-12-20T10:20:00;100658.44;;;10.48;100.00
3444;BME280;1736;52.068;6.968;2022-12-20T10:22:37;100658.44;;;10.48;100.00
3444;BME280;1736;52.068;6.968;2022-12-20T10:25:15;100650.72;;;10.44;100.00
3444;BME280;1736;52.068;6.968;2022-12-20T10:27:43;100656.72;;;10.46;100.00
3444;BME280;1736;52.068;6.968;2022-12-20T10:30:12;100655.13;;;10.55;100.00
3444;BME280;1736;52.068;6.968;2022-12-20T10:32:41;100642.38;;;10.49;100.00
3444;BME280;1736;52.068;6.968;2022-12-20T10:35:22;100645.66;;;10.41;100.00
3444;BME280;1736;52.068;6.968;2022-12-20T10:37:59;100644.13;;;10.39;100.00
3444;BME280;1736;52.068;6.968;2022-12-20T10:40:28;100639.34;;;10.53;100.00
3444;BME280;1736;52.068;6.968;2022-12-20T10:42:55;100634.28;;;10.71;98.68
3444;BME280;1736;52.068;6.968;2022-12-20T10:45:33;100629.63;;;10.63;98.88
3444;BME280;1736;52.068;6.968;2022-12-20T10:48:03;100629.31;;;10.78;99.65
3444;BME280;1736;52.068;6.968;2022-12-20T10:50:30;100621.03;;;10.71;99.11
3444;BME280;1736;52.068;6.968;2022-12-20T10:53:20;100614.34;;;10.77;98.67
3444;BME280;1736;52.068;6.968;2022-12-20T10:55:48;100606.47;;;10.66;99.46
3444;BME280;1736;52.068;6.968;2022-12-20T10:58:17;100609.16;;;10.54;100.00
3444;BME280;1736;52.068;6.968;2022-12-20T11:00:47;100609.44;;;10.52;100.00
3444;BME280;1736;52.068;6.968;2022-12-20T11:03:16;100607.38;;;10.55;100.00
3444;BME280;1736;52.068;6.968;2022-12-20T11:05:55;100600.72;;;10.61;100.00
3444;BME280;1736;52.068;6.968;2022-12-20T11:08:23;100602.56;;;10.70;98.92
3444;BME280;1736;52.068;6.968;2022-12-20T11:11:09;100597.00;;;10.73;98.62
3444;BME280;1736;52.068;6.968;2022-12-20T11:13:36;100597.44;;;10.78;98.12
3444;BME280;1736;52.068;6.968;2022-12-20T11:16:21;100591.16;;;10.79;96.95
3444;BME280;1736;52.068;6.968;2022-12-20T11:18:53;100585.53;;;10.93;97.02
3444;BME280;1736;52.068;6.968;2022-12-20T11:21:27;100587.88;;;10.86;96.85
3444;BME280;1736;52.068;6.968;2022-12-20T11:24:07;100583.44;;;10.96;96.24
3444;BME280;1736;52.068;6.968;2022-12-20T11:26:54;100580.91;;;10.95;96.68
3444;BME280;1736;52.068;6.968;2022-12-20T11:29:53;100583.13;;;10.90;96.84
3444;BME280;1736;52.068;6.968;2022-12-20T11:32:32;100589.97;;;10.92;96.76
3444;BME280;1736;52.068;6.968;2022-12-20T11:35:03;100576.31;;;10.97;97.64
3444;BME280;1736;52.068;6.968;2022-12-20T11:37:35;100574.91;;;10.93;98.04
3444;BME280;1736;52.068;6.968;2022-12-20T11:40:23;100569.59;;;10.93;97.89
3444;BME280;1736;52.068;6.968;2022-12-20T11:43:03;100573.78;;;10.95;98.14
3444;BME280;1736;52.068;6.968;2022-12-20T11:45:41;100573.66;;;10.97;98.37
3444;BME280;1736;52.068;6.968;2022-12-20T11:48:40;100573.19;;;10.92;98.75
3444;BME280;1736;52.068;6.968;2022-12-20T11:51:20;100564.94;;;10.85;99.19
3444;BME280;1736;52.068;6.968;2022-12-20T11:53:53;100559.06;;;10.82;99.05
3444;BME280;1736;52.068;6.968;2022-12-20T11:56:27;100562.38;;;10.74;100.00
3444;BME280;1736;52.068;6.968;2022-12-20T11:58:59;100559.50;;;10.87;99.87
3444;BME280;1736;52.068;6.968;2022-12-20T12:01:30;100565.59;;;10.78;100.00
3444;BME280;1736;52.068;6.968;2022-12-20T12:04:05;100557.63;;;10.78;100.00
3444;BME280;1736;52.068;6.968;2022-12-20T12:06:37;100570.59;;;10.71;100.00
3444;BME280;1736;52.068;6.968;2022-12-20T12:09:11;100564.00;;;10.66;100.00
3444;BME280;1736;52.068;6.968;2022-12-20T12:11:44;100563.34;;;10.73;100.00
3444;BME280;1736;52.068;6.968;2022-12-20T12:14:18;100562.88;;;10.68;100.00
3444;BME280;1736;52.068;6.968;2022-12-20T12:16:50;100572.09;;;10.64;100.00
3444;BME280;1736;52.068;6.968;2022-12-20T12:19:19;100556.09;;;10.54;100.00
3444;BME280;1736;52.068;6.968;2022-12-20T12:21:49;100560.06;;;10.60;100.00
3444;BME280;1736;52.068;6.968;2022-12-20T12:24:19;100572.69;;;10.47;100.00
3444;BME280;1736;52.068;6.968;2022-12-20T12:26:50;100563.06;;;10.46;100.00
3444;BME280;1736;52.068;6.968;2022-12-20T12:29:18;100567.75;;;10.42;100.00
3444;BME280;1736;52.068;6.968;2022-12-20T12:31:48;100562.00;;;10.37;100.00
3444;BME280;1736;52.068;6.968;2022-12-20T12:34:29;100559.41;;;10.26;100.00
3444;BME280;1736;52.068;6.968;2022-12-20T12:37:26;100554.84;;;10.28;100.00
3444;BME280;1736;52.068;6.968;2022-12-20T12:40:10;100557.75;;;10.25;100.00
3444;BME280;1736;52.068;6.968;2022-12-20T12:45:47;100546.94;;;10.17;100.00
3444;BME280;1736;52.068;6.968;2022-12-20T12:48:18;100552.50;;;10.14;100.00
3444;BME280;1736;52.068;6.968;2022-12-20T12:50:49;100560.44;;;10.14;100.00
3444;BME280;1736;52.068;6.968;2022-12-20T12:53:20;100553.03;;;10.08;100.00
3444;BME280;1736;52.068;6.968;2022-12-20T12:55:50;100553.72;;;10.10;100.00
3444;BME280;1736;52.068;6.968;2022-12-20T12:58:32;100543.91;;;10.22;100.00
3444;BME280;1736;52.068;6.968;2022-12-20T13:01:00;100548.63;;;10.18;100.00
3444;BME280;1736;52.068;6.968;2022-12-20T13:03:41;100543.06;;;10.21;100.00
3444;BME280;1736;52.068;6.968;2022-12-20T13:06:49;100539.97;;;10.16;100.00
3444;BME280;1736;52.068;6.968;2022-12-20T13:09:35;100542.63;;;10.16;100.00
3444;BME280;1736;52.068;6.968;2022-12-20T13:14:59;100552.25;;;10.17;100.00
3444;BME280;1736;52.068;6.968;2022-12-20T13:17:45;100539.97;;;10.16;100.00
3444;BME280;1736;52.068;6.968;2022-12-20T13:20:21;100531.75;;;10.19;100.00
3444;BME280;1736;52.068;6.968;2022-12-20T13:23:12;100533.31;;;10.22;100.00
3444;BME280;1736;52.068;6.968;2022-12-20T13:25:42;100525.53;;;10.30;100.00
3444;BME280;1736;52.068;6.968;2022-12-20T13:28:43;100534.44;;;10.29;100.00
3444;BME280;1736;52.068;6.968;2022-12-20T13:31:30;100530.00;;;10.29;100.00
3444;BME280;1736;52.068;6.968;2022-12-20T13:33:59;100522.88;;;10.30;100.00
3444;BME280;1736;52.068;6.968;2022-12-20T13:36:35;100531.09;;;10.27;100.00